Richardson, Mississippi
Current Conditions -  °F | °C
As of 12:53 PM on Sunday 23 Nov 2014 (Local Time) from KASD Reporting Station
Few Clouds Few Clouds  
Wind Chill: 72°   Ceiling: Unl
Heat Index: 72°   Visibility: 10mi
Dew Point: 61°   Wind: 10mph
Humidity: 68%   Direction: 210°SSW
Pressure: 29.66"   Gusts: 17mph
Location:  30.5854°N, 89.6932°W
Report Text: KASD 231853Z AUTO 21009G15KT 10SM FEW036 22/16 A2966 RMK AO2 SLP042 T02220161
Loading
Personal Weather Stations






























Interactive Weather Map New forecast layout! Learn more

10-Day Weather Forecast

Advertisements
Track Severe Weather on mobile